Time;durP1;ratioP1;P1;durP2;ratioP2;P2;SDS_P1;SDS_P2;PMS_P1;PMS_P2;Temp;Humidity;BMP_temperature;BMP_pressure;BME280_temperature;BME280_humidity;BME280_pressure;Samples;Min_cycle;Max_cycle;Signal;HPM_P1;HPM_P2
2023/03/24 00:01:22;;;;;;;;;1.00;1.00;;;;;20.77;57.51;100033.64;109479;1268;23540;-72
2023/03/24 00:03:50;;;;;;;;;1.00;1.00;;;;;20.76;57.31;100031.50;109489;1254;19674;-72
2023/03/24 00:06:21;;;;;;;;;1.00;1.00;;;;;20.77;57.46;100032.89;109470;1261;20955;-72
2023/03/24 00:08:48;;;;;;;;;2.00;2.00;;;;;20.76;57.39;100033.13;109481;1253;23939;-72
2023/03/24 00:11:17;;;;;;;;;1.00;1.00;;;;;20.76;57.27;100027.51;109524;1253;19199;-72
2023/03/24 00:13:46;;;;;;;;;2.00;1.50;;;;;20.75;57.09;100025.11;109497;1253;20743;-72
2023/03/24 00:16:13;;;;;;;;;1.00;1.00;;;;;20.77;57.30;100022.58;109469;1253;21480;-72
2023/03/24 00:18:40;;;;;;;;;2.00;2.00;;;;;20.76;57.38;100017.95;109505;1254;19620;-72
2023/03/24 00:21:10;;;;;;;;;2.00;2.00;;;;;20.77;57.34;100018.89;109480;1253;23979;-72
2023/03/24 00:23:37;;;;;;;;;1.00;1.00;;;;;20.76;57.22;100015.61;109486;1262;23196;-72
2023/03/24 00:26:04;;;;;;;;;1.50;1.50;;;;;20.76;57.13;100016.70;109490;1254;19710;-72
2023/03/24 00:28:32;;;;;;;;;1.00;1.00;;;;;20.77;56.96;100011.64;109497;1254;23273;-72
2023/03/24 00:31:00;;;;;;;;;1.00;1.00;;;;;20.76;57.18;100012.64;109504;1254;21589;-72
2023/03/24 00:33:30;;;;;;;;;1.00;1.00;;;;;20.75;57.07;100008.19;109493;1268;21630;-72
2023/03/24 00:35:57;;;;;;;;;4.00;3.33;;;;;20.76;57.09;100016.79;109546;1253;20833;-72
2023/03/24 00:38:25;;;;;;;;;2.00;1.00;;;;;20.76;56.99;100013.57;109476;1253;21539;-72
2023/03/24 00:40:52;;;;;;;;;1.00;1.00;;;;;20.77;57.11;100015.24;109308;1263;23581;-72
2023/03/24 00:43:22;;;;;;;;;1.00;1.00;;;;;20.77;57.13;100023.75;109497;1269;19406;-72
2023/03/24 00:45:51;;;;;;;;;1.00;1.00;;;;;20.77;57.04;100024.75;109515;1253;21527;-73
2023/03/24 00:48:18;;;;;;;;;2.00;2.00;;;;;20.76;57.12;100023.16;109481;1253;20031;-72
2023/03/24 00:50:46;;;;;;;;;2.00;2.00;;;;;20.75;56.96;100021.52;109490;1253;20788;-72
2023/03/24 00:53:14;;;;;;;;;2.00;2.00;;;;;20.75;57.01;100021.09;109486;1253;21704;-72
2023/03/24 00:55:45;;;;;;;;;2.00;1.00;;;;;20.74;57.05;100014.15;109448;1268;19200;-73
2023/03/24 00:58:16;;;;;;;;;2.00;2.00;;;;;20.74;57.09;100011.98;109323;1253;19928;-73
2023/03/24 01:00:44;;;;;;;;;1.00;1.00;;;;;20.74;56.94;100003.98;109494;1253;21496;-72
2023/03/24 01:03:11;;;;;;;;;2.00;2.00;;;;;20.74;56.88;100005.23;109567;1268;23509;-73
2023/03/24 01:05:40;;;;;;;;;2.00;2.00;;;;;20.75;56.92;100002.95;109485;1253;22348;-72
2023/03/24 01:08:07;;;;;;;;;3.00;2.00;;;;;20.75;56.96;99998.11;109466;1253;22615;-72
2023/03/24 01:10:34;;;;;;;;;2.00;2.00;;;;;20.75;56.72;99999.34;109497;1268;19081;-72
2023/03/24 01:13:02;;;;;;;;;2.00;2.00;;;;;20.75;56.94;99993.02;109493;1254;20715;-72
2023/03/24 01:15:30;;;;;;;;;2.00;2.00;;;;;20.75;56.73;99992.66;109519;1253;20139;-72
2023/03/24 01:17:57;;;;;;;;;2.00;2.00;;;;;20.74;56.68;99990.73;109493;1254;19847;-72
2023/03/24 01:20:24;;;;;;;;;2.00;2.00;;;;;20.74;56.90;99989.81;109512;1268;19592;-72
2023/03/24 01:22:52;;;;;;;;;1.00;1.00;;;;;20.75;56.77;99985.42;109532;1253;22785;-73
2023/03/24 01:25:19;;;;;;;;;1.33;1.33;;;;;20.74;56.88;99981.85;109597;1254;19729;-73
2023/03/24 01:27:46;;;;;;;;;2.00;2.00;;;;;20.74;56.80;99974.98;109541;1254;20764;-73
2023/03/24 01:30:14;;;;;;;;;4.00;2.00;;;;;20.74;56.70;99974.39;109584;1254;21580;-73
2023/03/24 01:32:41;;;;;;;;;2.00;2.00;;;;;20.74;56.79;99967.48;109550;1268;19203;-73
2023/03/24 01:35:08;;;;;;;;;2.00;2.00;;;;;20.75;56.66;99971.98;109463;1268;19394;-73
2023/03/24 01:37:36;;;;;;;;;1.00;1.00;;;;;20.74;56.71;99967.53;109472;1253;20144;-72
2023/03/24 01:40:06;;;;;;;;;2.00;2.00;;;;;20.75;56.48;99964.31;109470;1268;22928;-73
2023/03/24 01:42:33;;;;;;;;;1.00;1.00;;;;;20.74;56.51;99964.36;109470;1268;19412;-73
2023/03/24 01:45:01;;;;;;;;;;;;;;;20.75;56.51;99959.92;109473;1253;20168;-73
2023/03/24 01:47:28;;;;;;;;;2.00;2.00;;;;;20.75;56.42;99962.34;109515;1269;19580;-73
2023/03/24 01:49:55;;;;;;;;;2.00;2.00;;;;;20.74;56.46;99965.89;109590;1253;20751;-72
2023/03/24 01:52:22;;;;;;;;;1.00;1.00;;;;;20.74;56.58;99967.11;109583;1253;21531;-73
2023/03/24 01:54:50;;;;;;;;;1.00;1.00;;;;;20.74;56.38;99966.61;109555;1269;19578;-73
2023/03/24 01:57:17;;;;;;;;;2.00;2.00;;;;;20.75;56.53;99966.90;109589;1254;20871;-73
2023/03/24 01:59:44;;;;;;;;;2.00;2.00;;;;;20.74;56.52;99966.10;109532;1268;20151;-73
2023/03/24 02:02:12;;;;;;;;;1.00;1.00;;;;;20.74;56.62;99967.11;109502;1260;19217;-73
2023/03/24 02:04:40;;;;;;;;;2.00;2.00;;;;;20.74;56.37;99965.89;109451;1253;19410;-73
2023/03/24 02:07:08;;;;;;;;;3.00;3.00;;;;;20.75;56.39;99961.39;109474;1256;21728;-72
2023/03/24 02:09:35;;;;;;;;;2.00;2.00;;;;;20.75;56.28;99963.42;109471;1268;19219;-72
2023/03/24 02:12:02;;;;;;;;;1.50;1.50;;;;;20.75;56.19;99964.64;109497;1254;22080;-73
2023/03/24 02:14:30;;;;;;;;;2.00;2.00;;;;;20.76;56.28;99964.41;109504;1268;22588;-73
2023/03/24 02:16:58;;;;;;;;;2.00;2.00;;;;;20.75;56.18;99959.08;109563;1253;19698;-73
2023/03/24 02:19:25;;;;;;;;;2.00;2.00;;;;;20.75;56.22;99955.42;109576;1253;20763;-73
2023/03/24 02:21:52;;;;;;;;;2.00;2.00;;;;;20.75;56.23;99952.63;109553;1253;22696;-73
2023/03/24 02:24:20;;;;;;;;;2.00;2.00;;;;;20.74;56.06;99948.46;109578;1269;19173;-73
2023/03/24 02:26:47;;;;;;;;;2.00;2.00;;;;;20.73;56.19;99953.23;109557;1268;19309;-73
2023/03/24 02:29:14;;;;;;;;;1.50;1.50;;;;;20.73;56.21;99959.22;109591;1268;21759;-73
2023/03/24 02:31:42;;;;;;;;;1.00;1.00;;;;;20.75;56.15;99959.24;109569;1268;19303;-73
2023/03/24 02:34:10;;;;;;;;;2.00;2.00;;;;;20.73;56.40;99953.31;109645;1268;19582;-73
2023/03/24 02:36:37;;;;;;;;;2.00;2.00;;;;;20.73;56.22;99953.52;109543;1253;22182;-73
2023/03/24 02:39:04;;;;;;;;;2.00;2.00;;;;;20.74;56.00;99954.67;109516;1253;19658;-73
2023/03/24 02:41:32;;;;;;;;;2.00;2.00;;;;;20.74;56.07;99951.95;109478;1253;20695;-73
2023/03/24 02:43:59;;;;;;;;;2.50;2.50;;;;;20.73;56.07;99951.81;109455;1269;23038;-72
2023/03/24 02:46:26;;;;;;;;;2.00;2.00;;;;;20.72;56.32;99948.90;109505;1268;19223;-73
2023/03/24 02:48:54;;;;;;;;;1.00;1.00;;;;;20.73;56.11;99955.29;109488;1269;19402;-73
2023/03/24 02:51:21;;;;;;;;;2.00;2.00;;;;;20.73;56.11;99946.98;109451;1269;20145;-73
2023/03/24 02:53:48;;;;;;;;;2.00;2.00;;;;;20.74;56.06;99946.45;109451;1262;19460;-73
2023/03/24 02:56:16;;;;;;;;;2.67;2.00;;;;;20.73;56.27;99947.33;109468;1254;23954;-73
2023/03/24 02:58:43;;;;;;;;;2.00;2.00;;;;;20.72;55.94;99943.42;109463;1254;21593;-73
2023/03/24 03:01:10;;;;;;;;;2.00;2.00;;;;;20.73;55.90;99948.29;109483;1254;19618;-73
2023/03/24 03:03:38;;;;;;;;;2.00;2.00;;;;;20.72;55.79;99944.31;109499;1253;23813;-72
2023/03/24 03:06:05;;;;;;;;;1.00;1.00;;;;;20.73;56.06;99941.75;109506;1253;21636;-73
2023/03/24 03:08:33;;;;;;;;;1.33;1.33;;;;;20.72;56.06;99936.89;109526;1260;22618;-72
2023/03/24 03:11:00;;;;;;;;;2.00;2.00;;;;;20.72;55.91;99940.61;109522;1269;19375;-73
2023/03/24 03:13:27;;;;;;;;;2.00;2.00;;;;;20.72;55.85;99944.73;109510;1254;21429;-73
2023/03/24 03:15:55;;;;;;;;;2.00;2.00;;;;;20.72;56.10;99947.83;109457;1268;23402;-73
2023/03/24 03:18:22;;;;;;;;;1.50;1.50;;;;;20.72;56.12;99945.65;109508;1260;20776;-73
2023/03/24 03:20:51;;;;;;;;;4.00;2.00;;;;;20.71;55.90;99947.36;109504;1264;20306;-73
2023/03/24 03:23:19;;;;;;;;;1.00;1.00;;;;;20.72;56.05;99936.80;109466;1269;19505;-73
2023/03/24 03:25:49;;;;;;;;;1.00;1.00;;;;;20.72;56.02;99937.65;109526;1254;20841;-73
2023/03/24 03:28:19;;;;;;;;;1.00;1.00;;;;;20.71;55.95;99937.23;109581;1261;21898;-73
2023/03/24 03:30:46;;;;;;;;;2.00;2.00;;;;;20.70;55.95;99933.31;109498;1268;19173;-73
2023/03/24 03:33:17;;;;;;;;;2.00;2.00;;;;;20.72;55.90;99931.90;109574;1268;20749;-73
2023/03/24 03:35:44;;;;;;;;;1.00;1.00;;;;;20.72;55.86;99929.14;109519;1265;21537;-73
2023/03/24 03:38:12;;;;;;;;;2.00;2.00;;;;;20.72;55.75;99928.42;109511;1268;19038;-73
2023/03/24 03:40:40;;;;;;;;;1.00;1.00;;;;;20.71;55.75;99927.45;109580;1260;19735;-73
2023/03/24 03:43:07;;;;;;;;;2.00;2.00;;;;;20.71;55.74;99922.93;109568;1269;23516;-73
2023/03/24 03:45:35;;;;;;;;;1.00;1.00;;;;;20.71;55.93;99918.70;109600;1268;19377;-73
2023/03/24 03:48:02;;;;;;;;;2.00;2.00;;;;;20.71;55.69;99912.38;109505;1269;19486;-73
2023/03/24 03:50:29;;;;;;;;;2.00;2.00;;;;;20.72;55.64;99900.65;109470;1269;20194;-73
2023/03/24 03:52:57;;;;;;;;;2.00;2.00;;;;;20.71;55.57;99895.08;109478;1254;19623;-73
2023/03/24 03:55:24;;;;;;;;;2.00;2.00;;;;;20.72;55.64;99893.94;109462;1254;19366;-73
2023/03/24 03:57:51;;;;;;;;;2.00;2.00;;;;;20.71;55.59;99895.27;109472;1263;20182;-73
2023/03/24 04:00:19;;;;;;;;;2.00;2.00;;;;;20.71;55.85;99898.02;109486;1254;24757;-73
2023/03/24 04:02:46;;;;;;;;;1.00;1.00;;;;;20.71;55.83;99897.26;109495;1261;21215;-73
2023/03/24 04:05:13;;;;;;;;;2.00;2.00;;;;;20.72;55.78;99898.48;109478;1253;23902;-73
2023/03/24 04:07:41;;;;;;;;;2.00;2.00;;;;;20.71;55.64;99894.83;109461;1253;19684;-73
2023/03/24 04:10:08;;;;;;;;;1.00;1.00;;;;;20.71;55.63;99893.52;109458;1254;19641;-73
2023/03/24 04:12:36;;;;;;;;;2.00;2.00;;;;;20.70;55.88;99895.31;109456;1253;21463;-73
2023/03/24 04:15:03;;;;;;;;;1.00;1.00;;;;;20.69;55.91;99885.40;109503;1254;19304;-73
2023/03/24 04:17:30;;;;;;;;;2.00;2.00;;;;;20.70;55.65;99886.19;109559;1268;19351;-73
2023/03/24 04:19:59;;;;;;;;;2.00;2.00;;;;;20.70;55.61;99886.55;109546;1268;20120;-73
2023/03/24 04:22:26;;;;;;;;;1.50;1.50;;;;;20.69;55.65;99889.70;109532;1269;19174;-73
2023/03/24 04:24:53;;;;;;;;;1.00;1.00;;;;;20.69;55.66;99890.65;109522;1268;19407;-73
2023/03/24 04:27:25;;;;;;;;;2.00;2.00;;;;;20.70;55.55;99888.40;109522;1253;20125;-73
2023/03/24 04:29:53;;;;;;;;;1.00;1.00;;;;;20.69;55.64;99881.89;109483;1260;19514;-72
2023/03/24 04:32:20;;;;;;;;;2.00;2.00;;;;;20.69;55.61;99875.81;109471;1269;19378;-73
2023/03/24 04:34:49;;;;;;;;;1.00;1.00;;;;;20.69;55.76;99862.15;109450;1253;23282;-73
2023/03/24 04:37:17;;;;;;;;;1.00;1.00;;;;;20.69;55.84;99857.48;109470;1253;19732;-73
2023/03/24 04:39:44;;;;;;;;;1.00;1.00;;;;;20.69;55.47;99847.64;109484;1254;20787;-73
2023/03/24 04:42:11;;;;;;;;;1.00;1.00;;;;;20.68;55.57;99848.08;109481;1253;22351;-74
2023/03/24 04:44:40;;;;;;;;;2.00;2.00;;;;;20.69;55.81;99843.07;109514;1253;19689;-75
2023/03/24 04:47:07;;;;;;;;;4.00;2.00;;;;;20.69;55.61;99838.20;109497;1269;21839;-74
2023/03/24 04:49:35;;;;;;;;;2.00;2.00;;;;;20.68;55.67;99831.11;109621;1269;23666;-73
2023/03/24 04:52:02;;;;;;;;;1.00;1.00;;;;;20.69;55.49;99827.36;109614;1268;19489;-73
2023/03/24 04:54:30;;;;;;;;;2.00;2.00;;;;;20.69;55.50;99829.98;109516;1268;19313;-73
2023/03/24 04:56:57;;;;;;;;;1.00;1.00;;;;;20.69;55.55;99831.49;109507;1260;20224;-72
2023/03/24 04:59:24;;;;;;;;;1.00;1.00;;;;;20.70;55.66;99829.92;109521;1253;19880;-72
2023/03/24 05:01:52;;;;;;;;;2.00;2.00;;;;;20.69;55.45;99830.58;109492;1269;20818;-72
2023/03/24 05:04:19;;;;;;;;;1.50;1.50;;;;;20.70;55.44;99831.39;109467;1253;21581;-73
2023/03/24 05:06:48;;;;;;;;;1.00;1.00;;;;;20.70;55.42;99828.78;109487;1253;19148;-73
2023/03/24 05:09:16;;;;;;;;;2.00;2.00;;;;;20.70;55.51;99831.02;109500;1253;22186;-73
2023/03/24 05:11:44;;;;;;;;;2.00;2.00;;;;;20.70;55.52;99826.27;109476;1253;23098;-73
2023/03/24 05:14:11;;;;;;;;;1.00;1.00;;;;;20.68;55.51;99815.78;109495;1268;22210;-73
2023/03/24 05:16:38;;;;;;;;;1.00;1.00;;;;;20.69;55.45;99814.04;109463;1269;19356;-73
2023/03/24 05:19:06;;;;;;;;;2.00;2.00;;;;;20.69;55.48;99811.90;109465;1268;20174;-72
2023/03/24 05:21:33;;;;;;;;;1.00;1.00;;;;;20.68;55.32;99807.44;109501;1268;23471;-73
2023/03/24 05:24:01;;;;;;;;;4.00;2.00;;;;;20.68;55.45;99798.23;109455;1269;19358;-73
2023/03/24 05:26:29;;;;;;;;;2.50;2.50;;;;;20.68;55.57;99794.91;109476;1253;20230;-73
2023/03/24 05:28:57;;;;;;;;;2.00;2.00;;;;;20.69;55.26;99792.86;109590;1269;19448;-73
2023/03/24 05:31:24;;;;;;;;;1.00;1.00;;;;;20.69;55.37;99792.30;109487;1262;19415;-72
2023/03/24 05:33:51;;;;;;;;;2.00;2.00;;;;;20.68;55.47;99789.02;109477;1268;23510;-74
2023/03/24 05:36:19;;;;;;;;;1.00;1.00;;;;;20.69;55.47;99789.69;109457;1253;19194;-73
2023/03/24 05:38:46;;;;;;;;;4.00;2.00;;;;;20.70;55.29;99787.23;109456;1269;19385;-73
2023/03/24 05:41:14;;;;;;;;;1.00;1.00;;;;;20.71;55.49;99784.60;109470;1254;22705;-73
2023/03/24 05:43:42;;;;;;;;;2.00;2.00;;;;;20.71;55.37;99783.51;109470;1268;20679;-73
2023/03/24 05:46:09;;;;;;;;;2.00;2.00;;;;;20.73;55.33;99778.49;109569;1268;23038;-72
2023/03/24 05:48:36;;;;;;;;;1.00;1.00;;;;;20.76;55.34;99778.69;109501;1269;20339;-73
2023/03/24 05:51:04;;;;;;;;;2.00;2.00;;;;;20.75;55.48;99777.88;109499;1253;20990;-72
2023/03/24 05:53:31;;;;;;;;;4.00;4.00;;;;;20.77;55.49;99775.64;109460;1269;19382;-73
2023/03/24 05:55:59;;;;;;;;;11.00;11.00;;;;;20.82;55.59;99776.04;109470;1268;20190;-74
2023/03/24 05:58:26;;;;;;;;;15.00;15.00;;;;;20.85;55.81;99778.23;109483;1254;23594;-74
2023/03/24 06:00:55;;;;;;;;;47.00;44.00;;;;;20.87;56.26;99782.44;109459;1268;19448;-73
2023/03/24 06:03:23;;;;;;;;;27.00;27.00;;;;;20.92;57.33;99779.15;109473;1253;21664;-73
2023/03/24 06:05:51;;;;;;;;;19.00;17.00;;;;;20.93;57.27;99774.94;109492;1269;23145;-72
2023/03/24 06:08:18;;;;;;;;;15.00;14.00;;;;;20.94;57.29;99771.03;109545;1254;20788;-74
2023/03/24 06:10:47;;;;;;;;;;;;;;;20.92;57.28;99765.20;109513;1253;21603;-73
2023/03/24 06:13:16;;;;;;;;;10.50;10.50;;;;;20.91;57.00;99764.90;109494;1253;23682;-72
2023/03/24 06:15:46;;;;;;;;;11.00;11.00;;;;;20.91;57.14;99758.53;109535;1253;20931;-74
2023/03/24 06:18:14;;;;;;;;;8.00;8.00;;;;;20.90;57.20;99758.66;109572;1253;21691;-72
2023/03/24 06:20:41;;;;;;;;;10.50;10.50;;;;;20.91;57.31;99761.30;109521;1268;19293;-73
2023/03/24 06:23:09;;;;;;;;;7.00;7.00;;;;;20.89;57.24;99756.60;109487;1269;20976;-73
2023/03/24 06:25:36;;;;;;;;;7.50;5.00;;;;;20.87;57.45;99750.93;109490;1253;21631;-73
2023/03/24 06:28:04;;;;;;;;;8.00;5.00;;;;;20.84;57.96;99744.88;109467;1262;19254;-73
2023/03/24 06:30:32;;;;;;;;;7.50;7.50;;;;;20.81;57.84;99743.64;109459;1268;19368;-73
2023/03/24 06:32:59;;;;;;;;;4.00;4.00;;;;;20.80;57.81;99741.54;109477;1253;21575;-73
2023/03/24 06:35:26;;;;;;;;;4.00;4.00;;;;;20.83;57.46;99745.83;109478;1254;19623;-73
2023/03/24 06:37:54;;;;;;;;;2.00;2.00;;;;;20.84;57.45;99740.81;109484;1269;19381;-73
2023/03/24 06:40:22;;;;;;;;;5.00;5.00;;;;;20.82;57.59;99739.26;109492;1254;21596;-72
2023/03/24 06:42:49;;;;;;;;;5.00;4.00;;;;;20.82;57.50;99738.16;109491;1269;19351;-72
2023/03/24 06:45:16;;;;;;;;;5.00;5.00;;;;;20.80;57.75;99737.95;109499;1254;20837;-71
2023/03/24 06:47:44;;;;;;;;;4.00;4.00;;;;;20.81;57.57;99737.36;109487;1260;21450;-71
2023/03/24 06:50:11;;;;;;;;;4.00;4.00;;;;;20.81;57.52;99738.27;109496;1268;19270;-71
2023/03/24 06:52:40;;;;;;;;;3.00;2.00;;;;;20.80;57.51;99735.77;109485;1254;22527;-71
2023/03/24 06:55:07;;;;;;;;;2.00;2.00;;;;;20.80;57.20;99734.38;109496;1268;21632;-71
2023/03/24 06:57:35;;;;;;;;;4.00;4.00;;;;;20.81;57.40;99730.27;109504;1254;19630;-72
2023/03/24 07:00:08;;;;;;;;;2.00;2.00;;;;;20.81;57.20;99727.52;109477;1268;20703;-71
2023/03/24 07:02:35;;;;;;;;;4.00;4.00;;;;;20.83;57.05;99726.65;109488;1260;20480;-70
2023/03/24 07:05:05;;;;;;;;;;;;;;;20.87;56.90;99720.90;109496;1268;19334;-69
2023/03/24 07:07:32;;;;;;;;;62.00;50.00;;;;;20.90;56.71;99723.97;109506;1254;20425;-70
2023/03/24 07:10:00;;;;;;;;;106.50;78.00;;;;;20.91;56.72;99715.37;109511;1253;23588;-72
2023/03/24 07:12:27;;;;;;;;;107.00;76.00;;;;;20.89;56.97;99710.34;109473;1268;21764;-71
2023/03/24 07:14:55;;;;;;;;;98.00;72.50;;;;;20.90;56.75;99707.28;109512;1269;19727;-71
2023/03/24 07:17:22;;;;;;;;;98.00;70.00;;;;;20.90;56.77;99704.73;109540;1268;20192;-71
2023/03/24 07:19:49;;;;;;;;;85.00;62.00;;;;;20.90;56.79;99705.22;109465;1268;18934;-72
2023/03/24 07:22:17;;;;;;;;;81.00;55.00;;;;;20.91;56.88;99697.23;109505;1269;19391;-71
2023/03/24 07:24:44;;;;;;;;;68.50;47.50;;;;;20.92;57.15;99689.27;109499;1253;22714;-71
2023/03/24 07:27:11;;;;;;;;;69.00;52.33;;;;;20.91;57.09;99682.06;109636;1254;20066;-70
2023/03/24 07:29:39;;;;;;;;;59.00;44.00;;;;;20.93;57.26;99674.77;109523;1254;21059;-71
2023/03/24 07:32:06;;;;;;;;;43.50;36.50;;;;;20.92;57.27;99673.23;109477;1254;23594;-71
2023/03/24 07:34:35;;;;;;;;;45.00;38.50;;;;;20.91;57.25;99677.32;109516;1254;23545;-72
2023/03/24 07:37:02;;;;;;;;;48.00;38.00;;;;;20.91;57.01;99673.55;109456;1254;22426;-71
2023/03/24 07:39:29;;;;;;;;;35.00;29.00;;;;;20.91;57.09;99673.89;109518;1253;22222;-71
2023/03/24 07:41:57;;;;;;;;;26.00;25.00;;;;;20.90;57.22;99672.42;109484;1268;19334;-71
2023/03/24 07:44:24;;;;;;;;;28.00;23.00;;;;;20.87;57.25;99667.95;109482;1263;21383;-70
2023/03/24 07:46:52;;;;;;;;;23.00;19.00;;;;;20.86;57.18;99676.05;109497;1253;22721;-70
2023/03/24 07:49:19;;;;;;;;;29.00;20.00;;;;;20.84;57.38;99669.59;109442;1253;22527;-70
2023/03/24 07:51:47;;;;;;;;;20.00;16.00;;;;;20.83;57.16;99678.09;109477;1253;20989;-71
2023/03/24 07:54:14;;;;;;;;;18.00;16.00;;;;;20.82;57.05;99676.04;109469;1268;20270;-71
2023/03/24 07:56:41;;;;;;;;;17.00;16.00;;;;;20.82;56.92;99670.04;109528;1269;23461;-71
2023/03/24 07:59:09;;;;;;;;;20.00;17.00;;;;;20.83;56.94;99671.22;109539;1254;20887;-70
2023/03/24 08:01:37;;;;;;;;;16.50;13.50;;;;;20.84;56.72;99672.06;109504;1269;22654;-70
2023/03/24 08:04:05;;;;;;;;;16.00;13.00;;;;;20.84;56.83;99670.85;109491;1263;22475;-70
2023/03/24 08:06:33;;;;;;;;;15.33;13.00;;;;;20.83;56.57;99666.45;109449;1269;19498;-71
2023/03/24 08:09:00;;;;;;;;;10.50;10.00;;;;;20.83;56.69;99667.74;109492;1261;22927;-71
2023/03/24 08:11:27;;;;;;;;;;;;;;;20.82;56.85;99668.21;109458;1253;20030;-70
2023/03/24 08:13:55;;;;;;;;;14.00;11.00;;;;;20.81;56.72;99665.92;109473;1253;20736;-71
2023/03/24 08:16:23;;;;;;;;;11.00;11.00;;;;;20.81;56.61;99662.28;109488;1253;21703;-70
2023/03/24 08:18:51;;;;;;;;;12.33;11.00;;;;;20.82;56.72;99659.52;109530;1253;22128;-71
2023/03/24 08:21:18;;;;;;;;;11.00;11.00;;;;;20.81;56.36;99655.58;109484;1269;21083;-71
2023/03/24 08:23:46;;;;;;;;;9.00;7.33;;;;;20.80;56.47;99652.06;109533;1253;22963;-71
2023/03/24 08:26:13;;;;;;;;;13.00;11.33;;;;;20.80;56.66;99647.23;109078;1253;580389;-72
2023/03/24 08:28:41;;;;;;;;;7.00;7.00;;;;;20.81;56.52;99641.34;109596;1268;19968;-72
2023/03/24 08:31:08;;;;;;;;;7.50;7.00;;;;;20.81;56.49;99639.11;109573;1269;20160;-70
2023/03/24 08:33:36;;;;;;;;;9.00;9.00;;;;;20.81;56.52;99634.20;109516;1253;19642;-69
2023/03/24 08:36:03;;;;;;;;;8.00;7.00;;;;;20.80;56.39;99633.20;109437;1253;23077;-71
2023/03/24 08:38:31;;;;;;;;;10.50;8.50;;;;;20.79;56.30;99625.23;109461;1253;21630;-71
2023/03/24 08:41:00;;;;;;;;;5.00;5.00;;;;;20.79;56.19;99619.12;109480;1269;19291;-72
2023/03/24 08:43:28;;;;;;;;;9.00;8.00;;;;;20.82;56.33;99619.35;109551;1264;21254;-73
2023/03/24 08:45:55;;;;;;;;;8.00;7.00;;;;;20.84;56.18;99616.63;109522;1269;21561;-73
2023/03/24 08:48:23;;;;;;;;;7.00;7.00;;;;;20.87;56.09;99614.46;109493;1254;19756;-71
2023/03/24 08:50:50;;;;;;;;;7.00;7.00;;;;;20.91;56.99;99605.14;109499;1254;20834;-72
2023/03/24 08:53:17;;;;;;;;;8.00;5.00;;;;;20.91;57.21;99600.02;109543;1268;20132;-72
2023/03/24 08:55:45;;;;;;;;;5.00;5.00;;;;;20.92;57.37;99598.79;109532;1268;19351;-70
2023/03/24 08:58:12;;;;;;;;;13.00;10.00;;;;;20.88;57.25;99595.29;109476;1269;19395;-70
2023/03/24 09:00:39;;;;;;;;;13.00;11.00;;;;;20.87;56.96;99595.52;109517;1269;20191;-70
2023/03/24 09:03:07;;;;;;;;;8.00;7.00;;;;;20.83;56.92;99591.83;109577;1253;20390;-70
2023/03/24 09:05:34;;;;;;;;;14.00;14.00;;;;;20.81;56.91;99596.38;109589;1254;20808;-70
2023/03/24 09:08:02;;;;;;;;;;;;;;;20.80;56.58;99589.63;109514;1253;23133;-71
2023/03/24 09:10:29;;;;;;;;;12.00;11.00;;;;;20.79;56.35;99581.42;109479;1253;21158;-73
2023/03/24 09:12:56;;;;;;;;;11.00;10.00;;;;;20.79;56.07;99572.00;109476;1268;21837;-72
2023/03/24 09:15:24;;;;;;;;;10.50;10.00;;;;;20.79;55.97;99563.61;109472;1268;20153;-71
2023/03/24 09:17:51;;;;;;;;;11.00;11.00;;;;;20.82;55.87;99569.65;109522;1269;19235;-70
2023/03/24 09:20:18;;;;;;;;;12.00;12.00;;;;;20.83;55.64;99566.48;109503;1268;22664;-70
2023/03/24 09:22:46;;;;;;;;;11.00;11.00;;;;;20.84;55.58;99564.47;109493;1253;22299;-71
2023/03/24 09:25:13;;;;;;;;;14.00;14.00;;;;;20.83;55.60;99555.13;109580;1268;23093;-71
2023/03/24 09:27:41;;;;;;;;;13.00;13.00;;;;;20.82;55.41;99551.68;109491;1253;19444;-72
2023/03/24 09:30:08;;;;;;;;;8.00;8.00;;;;;20.81;55.49;99554.65;109483;1268;20521;-71
2023/03/24 09:32:35;;;;;;;;;13.00;13.00;;;;;20.81;55.45;99553.98;109548;1269;21445;-71
2023/03/24 09:35:03;;;;;;;;;13.00;11.00;;;;;20.83;55.21;99546.28;109521;1260;22997;-71
2023/03/24 09:37:30;;;;;;;;;11.00;10.00;;;;;20.85;55.20;99551.82;109507;1268;23106;-71
2023/03/24 09:39:58;;;;;;;;;10.00;10.00;;;;;20.86;54.98;99546.58;109527;1253;19998;-71
2023/03/24 09:42:26;;;;;;;;;11.00;11.00;;;;;20.88;54.87;99539.64;109561;1269;21091;-71
2023/03/24 09:44:53;;;;;;;;;14.00;13.00;;;;;20.87;54.87;99531.04;109516;1254;21922;-70
2023/03/24 09:47:21;;;;;;;;;10.00;10.00;;;;;20.90;54.80;99526.48;109504;1268;19146;-71
2023/03/24 09:49:48;;;;;;;;;11.00;11.00;;;;;20.91;54.78;99530.63;109524;1253;20825;-71
2023/03/24 09:52:15;;;;;;;;;14.00;13.50;;;;;20.92;54.61;99522.20;109457;1253;23185;-72
2023/03/24 09:54:43;;;;;;;;;11.00;11.00;;;;;20.94;54.69;99524.10;109484;1254;23700;-70
2023/03/24 09:57:10;;;;;;;;;12.00;10.00;;;;;20.94;54.68;99521.94;109482;1254;22274;-70
2023/03/24 09:59:38;;;;;;;;;10.00;10.00;;;;;20.94;54.56;99524.98;109464;1253;22033;-70
2023/03/24 10:02:05;;;;;;;;;11.00;11.00;;;;;20.94;54.71;99523.47;109468;1269;19928;-70
2023/03/24 10:04:32;;;;;;;;;10.00;10.00;;;;;20.91;54.75;99531.34;109545;1253;20842;-75
2023/03/24 10:07:00;;;;;;;;;8.00;8.00;;;;;20.80;54.51;99525.04;109544;1253;22643;-74
2023/03/24 10:09:27;;;;;;;;;7.00;7.00;;;;;20.80;54.72;99524.73;109489;1268;20570;-73
2023/03/24 10:11:55;;;;;;;;;9.00;9.00;;;;;20.80;54.51;99522.85;109568;1269;19398;-72
2023/03/24 10:14:22;;;;;;;;;8.00;8.00;;;;;20.78;54.47;99520.17;109511;1254;21667;-73
2023/03/24 10:16:49;;;;;;;;;7.67;7.00;;;;;20.79;54.13;99524.11;109439;1269;20494;-73
2023/03/24 10:19:17;;;;;;;;;;;;;;;20.79;54.35;99523.80;109291;1254;20800;-73
2023/03/24 10:21:46;;;;;;;;;9.00;9.00;;;;;20.79;54.18;99517.70;109305;1254;24279;-73
2023/03/24 10:24:14;;;;;;;;;8.00;8.00;;;;;20.77;53.99;99513.05;109295;1254;23513;-73
2023/03/24 10:26:41;;;;;;;;;;;;;;;20.76;53.83;99512.34;109239;1255;20905;-74
2023/03/24 10:29:09;;;;;;;;;6.00;6.00;;;;;20.75;53.77;99506.46;109308;1254;21634;-75
2023/03/24 10:31:37;;;;;;;;;8.00;7.00;;;;;20.75;53.75;99500.52;109313;1263;19791;-74
2023/03/24 10:34:04;;;;;;;;;7.00;5.00;;;;;20.76;53.60;99495.11;109358;1269;19474;-74
2023/03/24 10:36:32;;;;;;;;;5.00;5.00;;;;;20.77;53.45;99498.56;109348;1254;23497;-74
2023/03/24 10:38:59;;;;;;;;;7.50;7.00;;;;;20.79;53.31;99494.70;109292;1264;19268;-74
2023/03/24 10:41:27;;;;;;;;;10.00;8.00;;;;;20.79;53.36;99490.84;109310;1256;20790;-74
2023/03/24 10:43:54;;;;;;;;;8.00;7.50;;;;;20.81;53.09;99486.91;109293;1264;23087;-74
2023/03/24 10:46:22;;;;;;;;;10.00;10.00;;;;;20.81;53.09;99481.38;109304;1254;20368;-74
2023/03/24 10:48:49;;;;;;;;;7.00;7.00;;;;;20.81;53.22;99480.76;109289;1269;21109;-74
2023/03/24 10:51:17;;;;;;;;;7.00;7.00;;;;;20.82;53.07;99474.17;109264;1261;20301;-74
2023/03/24 10:53:46;;;;;;;;;7.00;7.00;;;;;20.82;52.77;99476.11;109275;1254;19604;-73
2023/03/24 10:56:14;;;;;;;;;7.00;7.00;;;;;20.78;52.83;99471.88;109312;1269;19388;-73
2023/03/24 10:58:42;;;;;;;;;7.00;7.00;;;;;20.80;52.80;99465.33;109290;1254;21647;-73
2023/03/24 11:01:09;;;;;;;;;5.00;5.00;;;;;20.81;52.83;99462.45;109276;1256;19730;-71
2023/03/24 11:03:37;;;;;;;;;7.00;5.00;;;;;20.80;52.68;99458.42;109224;1264;19501;-71
2023/03/24 11:06:04;;;;;;;;;6.00;6.00;;;;;20.80;52.62;99456.15;109324;1256;21601;-71
2023/03/24 11:08:31;;;;;;;;;4.50;4.50;;;;;20.76;52.67;99451.47;109316;1269;23607;-71
2023/03/24 11:10:59;;;;;;;;;5.00;5.00;;;;;20.77;52.56;99449.34;109350;1262;22772;-72
2023/03/24 11:13:26;;;;;;;;;5.00;4.00;;;;;20.78;52.37;99446.31;109334;1269;23040;-70
2023/03/24 11:15:54;;;;;;;;;4.50;4.50;;;;;20.80;52.44;99448.44;109295;1269;19657;-71
2023/03/24 11:18:21;;;;;;;;;7.00;5.00;;;;;20.79;52.06;99452.89;109260;1254;22054;-72
2023/03/24 11:20:48;;;;;;;;;4.00;4.00;;;;;20.78;52.11;99447.08;109285;1268;20440;-72
2023/03/24 11:23:16;;;;;;;;;8.00;7.00;;;;;20.79;52.16;99440.23;109353;1269;19213;-72